1980 16S:FRED (1980051S12102)


On this page: IBTrACS data - Map and Plots - Positions - Intensities - Original source data

Summary

Start Feb 20
End Feb 28
Basin SI
LMI 120 kt
Sources jtwc_sh
bom
td9636
neumann
ds824_au
ds824_sh
In WMO? Yes
Previous storm 1980 15S (SI)
Previous in basin 1980 15S (SI)
Concurrent storms 1980 16S (SI)
1980 17P (SP)
1980 18S (SI)
Next in basin 1980 18S (SI)
Next storm 1980 17P (SP)

top of page IBTrACS Data: File Access

No storm imagery available

top of page Plots:

Map of storm track will not appear if FTP is down
Time series of cyclone Maximum Sustained Wind will not appear if FTP is down
Time series of cyclone Minimum Central Pressure will not appear if FTP is down

top of page Track Data:Position

jtwc_sh bom td9636 neumann ds824_au ds824_sh
Date Lat Lon Lat Lon Lat Lon Lat Lon Lat Lon Lat Lon
1980-02-20 00:00:00 -11.6 102.3 -11.6 102.3
1980-02-20 06:00:00 -11.7 102.6 -11.7 102.7 -11.7 102.6
1980-02-20 12:00:00 -12.0 103.5 -11.9 102.8 -12.0 103.5 -12.0 103.2 -11.9 102.8 -12.0 103.5
1980-02-20 18:00:00 -12.4 103.6 -12.1 103.0 -12.4 103.6 -12.4 103.6 -12.1 103.0 -12.4 103.6
1980-02-21 00:00:00 -12.7 103.6 -12.4 103.0 -12.7 103.6 -12.7 103.6 -12.4 103.0 -12.7 103.6
1980-02-21 06:00:00 -13.0 103.4 -12.7 102.9 -13.0 103.5 -13.0 103.4 -12.7 102.9 -13.0 103.4
1980-02-21 12:00:00 -13.3 103.1 -13.0 102.8 -13.3 103.1 -13.3 103.1 -13.0 102.8 -13.3 103.1
1980-02-21 18:00:00 -13.6 102.4 -13.1 102.3 -13.6 102.5 -13.6 102.4 -13.1 102.3 -13.6 102.4
1980-02-22 00:00:00 -13.7 101.8 -13.2 101.8 -13.7 101.8 -13.7 101.8 -13.2 101.8 -13.7 101.8
1980-02-22 06:00:00 -13.6 101.5 -13.3 101.5 -13.6 101.5 -13.6 101.5 -13.3 101.5 -13.6 101.5
1980-02-22 12:00:00 -13.5 101.2 -13.4 101.1 -13.5 101.2 -13.5 101.2 -13.4 101.1 -13.5 101.2
1980-02-22 18:00:00 -13.4 100.8 -13.5 100.8 -13.4 100.8 -13.4 100.8 -13.5 100.8 -13.4 100.8
1980-02-23 00:00:00 -13.5 100.2 -13.6 100.2 -13.5 100.2 -13.5 100.2 -13.6 100.2 -13.5 100.2
1980-02-23 06:00:00 -13.7 99.4 -13.8 99.3 -13.7 99.4 -13.7 99.4 -13.8 99.3 -13.7 99.4
1980-02-23 12:00:00 -14.0 98.5 -14.0 98.2 -14.0 98.5 -14.0 98.5 -14.0 98.2 -14.0 98.5
1980-02-23 18:00:00 -14.2 97.4 -14.3 97.0 -14.2 97.4 -14.2 97.4 -14.3 97.0 -14.2 97.4
1980-02-24 00:00:00 -14.5 96.2 -14.7 95.6 -14.5 96.2 -14.5 96.2 -14.7 95.6 -14.5 96.2
1980-02-24 06:00:00 -14.9 94.7 -15.1 94.3 -14.9 94.7 -14.9 94.7 -15.1 94.3 -14.9 94.7
1980-02-24 12:00:00 -15.5 93.2 -15.6 93.3 -15.5 93.2 -15.5 93.2 -15.6 93.3 -15.5 93.2
1980-02-24 18:00:00 -16.2 92.1 -16.0 92.1 -16.1 92.0 -16.2 92.1 -16.0 92.1 -16.2 92.1
1980-02-25 00:00:00 -16.8 91.0 -16.6 90.8 -16.8 91.0 -16.8 91.0 -16.6 90.8 -16.8 91.0
1980-02-25 06:00:00 -17.4 90.0 -17.2 89.8 -17.4 90.0 -17.4 90.0 -17.2 89.8 -17.4 90.0
1980-02-25 12:00:00 -18.0 89.0 -17.9 88.9 -18.0 89.0 -18.0 89.0 -17.9 88.9 -18.0 89.0
1980-02-25 18:00:00 -18.6 87.8 -18.6 88.0 -18.6 87.7 -18.6 87.8 -18.6 88.0 -18.6 87.8
1980-02-26 00:00:00 -19.3 86.8 -19.6 87.3 -19.3 86.8 -19.3 86.8 -19.6 87.3 -19.3 86.8
jtwc_sh bom td9636 neumann ds824_au ds824_sh
1980-02-26 06:00:00 -20.4 86.8 -20.2 87.0 -20.5 86.7 -20.4 86.8 -20.2 87.0 -20.4 86.8
1980-02-26 12:00:00 -21.5 87.0 -20.8 86.8 -21.5 87.0 -21.5 87.0 -20.8 86.8 -21.5 87.0
1980-02-26 18:00:00 -21.6 87.0 -21.5 86.8 -21.6 87.1 -21.6 87.0 -21.5 86.8 -21.6 87.0
1980-02-27 00:00:00 -21.7 87.0 -22.1 86.8 -21.7 87.0 -21.7 87.0 -22.1 86.8 -21.7 87.0
1980-02-27 06:00:00 -22.8 86.8 -22.8 86.9 -22.7 86.6 -22.8 86.8 -22.8 86.9 -22.8 86.8
1980-02-27 12:00:00 -24.0 86.5 -23.6 87.0 -24.0 86.5 -24.0 86.5 -23.6 87.0 -24.0 86.5
1980-02-27 18:00:00 -25.3 87.0 -24.5 87.2 -25.4 87.1 -25.3 87.0 -24.5 87.2 -25.3 87.0
1980-02-28 00:00:00 -26.7 88.1 -25.6 87.5 -26.7 88.1 -26.7 88.1 -25.6 87.5 -26.7 88.1

top of pageTrack Data:Intensity

jtwc_sh bom td9636 neumann ds824_au ds824_sh
Date Wind Pres Wind Pres Wind Pres Wind Pres Wind Pres Wind Pres
1980-02-20 00:00:00 1005. 20. 1005.
1980-02-20 06:00:00 1002. 20. 1004. 25. 1002.
1980-02-20 12:00:00 40. 1000. 25. 1003. 30. 1000. 40.
1980-02-20 18:00:00 40. 997. 25. 1002. 35. 997. 40.
1980-02-21 00:00:00 45. 994. 40. 25. 1002. 40. 994. 45.
1980-02-21 06:00:00 50. 989. 40. 40. 994. 50. 989. 50.
1980-02-21 12:00:00 55. 984. 45. 55. 985. 55. 984. 55.
1980-02-21 18:00:00 70. 978. 45. 70. 975. 60. 978. 70.
1980-02-22 00:00:00 80. 971. 55. 80. 966. 70. 971. 80.
1980-02-22 06:00:00 85. 964. 55. 85. 960. 80. 964. 85.
1980-02-22 12:00:00 85. 956. 80. 95. 955. 85. 956. 85.
1980-02-22 18:00:00 85. 950. 80. 100. 950. 95. 950. 85.
1980-02-23 00:00:00 85. 945. 85. 105. 945. 100. 945. 85.
1980-02-23 06:00:00 85. 940. 85. 110. 938. 105. 940. 85.
1980-02-23 12:00:00 90. 936. 85. 120. 931. 105. 936. 90.
1980-02-23 18:00:00 90. 930. 85. 120. 930. 115. 930. 90.
1980-02-24 00:00:00 90. 930. 90. 120. 930. 115. 930. 90.
1980-02-24 06:00:00 90. 930. 90. 120. 930. 115. 930. 90.
1980-02-24 12:00:00 85. 930. 90. 120. 930. 115. 930. 85.
1980-02-24 18:00:00 90. 930. 90. 120. 930. 115. 930. 90.
1980-02-25 00:00:00 95. 930. 85. 120. 930. 115. 930. 95.
1980-02-25 06:00:00 90. 930. 85. 120. 930. 115. 930. 90.
1980-02-25 12:00:00 80. 930. 95. 120. 930. 115. 930. 80.
1980-02-25 18:00:00 70. 938. 95. 115. 936. 105. 938. 70.
1980-02-26 00:00:00 60. 945. 80. 105. 943. 100. 945. 60.
jtwc_sh bom td9636 neumann ds824_au ds824_sh
1980-02-26 06:00:00 55. 954. 80. 100. 951. 90. 954. 55.
1980-02-26 12:00:00 55. 963. 60. 90. 958. 80. 963. 55.
1980-02-26 18:00:00 45. 969. 60. 80. 966. 75. 969. 45.
1980-02-27 00:00:00 35. 975. 55. 70. 973. 65. 975. 35.
1980-02-27 06:00:00 30. 982. 55. 60. 980. 55. 982. 30.
1980-02-27 12:00:00 25. 988. 35. 55. 986. 50. 988. 25.
1980-02-27 18:00:00 994. 35. 45. 992. 40. 994.
1980-02-28 00:00:00 1000. 25. 30. 999. 30. 1000.

top of page Links to source data

Source Source file Format
jtwc_sh bsh161980.txt ATCF
bom Newcyclonedatabase-08repair.csv:Line=11444:FRED CSV file (from Excel file)
td9636 cons_worldwide_trop_cyclone_18710101-19891231-005:Line=11870 TD 9636
neumann tracks.sh:Storm=579:FRED:BSH1680:JTWC&BM510 HURDAT
ds824_au aus_area.dat:599:FRED HURDAT
ds824_sh s_hem.dat:1421:16S HURDAT